Dunn Center, North Dakota
Current Conditions -  °F | °C
As of 7:56 AM on Friday 19 Dec 2014 (Local Time) from KDIK Reporting Station
Clear Clear  
Wind Chill: 22°   Ceiling: Unl
Heat Index: 30°   Visibility: 10mi
Dew Point: 23°   Wind: 8mph
Humidity: 75%   Direction: 260°W
Pressure: 29.9"   Gusts: NA
Location:  47.35°N, 102.62°W
Report Text: KDIK 191456Z AUTO 26007KT 10SM CLR M01/M05 A2990 RMK AO2 SLP156 T10111050 51003
Loading
Personal Weather Stations






























Interactive Weather Map New forecast layout! Learn more

10-Day Weather Forecast

Advertisements
Track Severe Weather on mobile